createdAt,value
2022-12-25T00:01:15.125Z,97444.22
2022-12-25T00:11:23.445Z,97450.72
2022-12-25T00:21:25.709Z,97454.47
2022-12-25T00:31:28.087Z,97461.97
2022-12-25T00:41:48.677Z,97461.50
2022-12-25T00:51:51.455Z,97476.16
2022-12-25T01:01:53.817Z,97476.91
2022-12-25T01:11:56.168Z,97487.28
2022-12-25T01:21:58.330Z,97490.59
2022-12-25T01:32:00.604Z,97489.50
2022-12-25T01:42:03.030Z,97485.50
2022-12-25T01:52:12.010Z,97487.13
2022-12-25T02:02:14.985Z,97495.09
2022-12-25T02:12:30.235Z,97486.81
2022-12-25T02:22:51.482Z,97496.06
2022-12-25T02:33:19.281Z,97504.81
2022-12-25T02:43:46.023Z,97509.97
2022-12-25T02:54:10.252Z,97514.81
2022-12-25T03:04:35.553Z,97531.06
2022-12-25T03:14:57.751Z,97528.00
2022-12-25T03:25:19.383Z,97546.59
2022-12-25T03:35:46.018Z,97546.00
2022-12-25T03:46:05.400Z,97553.72
2022-12-25T03:56:26.963Z,97545.69
2022-12-25T04:06:47.569Z,97543.47
2022-12-25T04:17:08.537Z,97528.50
2022-12-25T04:27:29.368Z,97531.81
2022-12-25T04:37:31.567Z,97560.00
2022-12-25T04:47:33.840Z,97560.06
2022-12-25T04:57:36.790Z,97572.22
2022-12-25T05:07:38.980Z,97575.72
2022-12-25T05:17:41.142Z,97570.97
2022-12-25T05:27:46.467Z,97585.13
2022-12-25T05:37:50.920Z,97601.31
2022-12-25T05:47:53.371Z,97613.34
2022-12-25T05:57:55.543Z,97605.75
2022-12-25T06:07:57.795Z,97621.84
2022-12-25T06:18:01.674Z,97639.00
2022-12-25T06:28:04.064Z,97629.69
2022-12-25T06:38:06.270Z,97634.34
2022-12-25T06:48:08.469Z,97629.41
2022-12-25T06:58:10.699Z,97631.03
2022-12-25T07:08:13.386Z,97659.88
2022-12-25T07:18:15.558Z,97624.16
2022-12-25T07:28:17.744Z,97624.44
2022-12-25T07:38:20.055Z,97659.47
2022-12-25T07:48:22.282Z,97644.19
2022-12-25T07:58:24.633Z,97664.28
2022-12-25T08:08:26.805Z,97654.09
2022-12-25T08:18:32.533Z,97679.06
2022-12-25T08:28:35.780Z,97682.97
2022-12-25T08:38:39.057Z,97692.47
2022-12-25T08:48:45.958Z,97695.06
2022-12-25T08:58:48.229Z,97690.63
2022-12-25T09:08:50.609Z,97692.19
2022-12-25T10:35:47.674Z,97605.06
2022-12-25T10:45:50.048Z,97574.88
2022-12-25T10:56:03.333Z,97589.66
2022-12-25T11:06:07.767Z,97573.09
2022-12-25T11:16:14.480Z,97576.97
2022-12-25T11:26:18.469Z,97542.59
2022-12-25T11:36:42.248Z,97530.19
2022-12-25T11:46:47.970Z,97530.81
2022-12-25T11:56:50.501Z,97514.81
2022-12-25T12:07:00.658Z,97537.34
2022-12-25T12:17:03.031Z,97528.50
2022-12-25T12:27:18.341Z,97511.69
2022-12-25T12:37:29.334Z,97512.13
2022-12-25T12:47:44.874Z,97494.78
2022-12-25T12:58:01.697Z,97471.31
2022-12-25T13:08:12.759Z,97476.97
2022-12-25T13:18:15.247Z,97462.59
2022-12-25T13:28:17.398Z,97420.97
2022-12-25T13:38:19.916Z,97426.69
2022-12-25T13:48:23.366Z,97444.03
2022-12-25T13:58:31.501Z,97445.78
2022-12-25T14:08:35.974Z,97428.13
2022-12-25T14:18:38.163Z,97428.38
2022-12-25T14:28:40.411Z,97403.31
2022-12-25T14:38:44.271Z,97435.25
2022-12-25T14:48:46.533Z,97426.81
2022-12-25T14:58:52.723Z,97420.84
2022-12-25T15:09:03.062Z,97421.44
2022-12-25T15:19:07.609Z,97408.22
2022-12-25T15:29:10.752Z,97399.00
2022-12-25T15:39:13.144Z,97390.44
2022-12-25T15:49:16.414Z,97369.56
2022-12-25T15:59:19.916Z,97350.38
2022-12-25T16:09:22.212Z,97369.94
2022-12-25T16:19:24.447Z,97343.09
2022-12-25T16:29:26.757Z,97330.59
2022-12-25T16:39:29.135Z,97302.66
2022-12-25T16:49:31.618Z,97279.28
2022-12-25T16:59:34.755Z,97261.41
2022-12-25T17:09:43.721Z,97245.50
2022-12-25T17:19:46.581Z,97252.03
2022-12-25T17:29:48.779Z,97231.94
2022-12-25T17:39:50.969Z,97234.84
2022-12-25T17:49:53.160Z,97198.16
2022-12-25T17:59:55.408Z,97184.69
2022-12-25T18:09:57.641Z,97192.13
2022-12-25T18:19:59.820Z,97179.97
2022-12-25T18:30:02.354Z,97132.00
2022-12-25T18:40:05.451Z,97139.84
2022-12-25T18:50:08.818Z,97124.69
2022-12-25T19:00:11.285Z,97056.91
2022-12-25T19:10:13.543Z,97072.28
2022-12-25T19:20:15.794Z,97071.78
2022-12-25T19:30:18.431Z,97091.88
2022-12-25T19:40:20.724Z,97085.34
2022-12-25T19:50:28.429Z,97070.19
2022-12-25T20:00:31.171Z,97044.44
2022-12-25T20:10:33.383Z,97011.38
2022-12-25T20:20:35.770Z,97012.72
2022-12-25T20:30:39.649Z,97027.09
2022-12-25T20:41:24.625Z,97018.69
2022-12-25T20:51:08.803Z,97033.56
2022-12-25T21:01:15.518Z,97021.91
2022-12-25T21:11:18.292Z,97000.72
2022-12-25T21:21:22.066Z,96997.72
2022-12-25T21:40:16.196Z,97007.41
2022-12-25T21:50:39.469Z,96988.72
2022-12-25T22:00:41.840Z,96988.84
2022-12-25T22:10:44.104Z,96976.38
2022-12-25T22:20:46.306Z,96988.00
2022-12-25T22:30:48.504Z,96975.16
2022-12-25T22:40:50.889Z,96962.41
2022-12-25T22:50:53.104Z,96956.56
2022-12-25T23:00:55.292Z,96945.19
2022-12-25T23:11:05.302Z,96936.28
2022-12-25T23:21:26.096Z,96930.59
2022-12-25T23:31:38.101Z,96934.00
2022-12-25T23:41:42.106Z,96916.78
2022-12-25T23:51:46.132Z,96922.78
